EDT,Max TemperatureF,Mean TemperatureF,Min TemperatureF,Max Dew PointF,MeanDew PointF,Min DewpointF,Max Humidity, Mean Humidity, Min Humidity, Max Sea Level PressureIn, Mean Sea Level PressureIn, Min Sea Level PressureIn, Max VisibilityMiles, Mean VisibilityMiles, Min VisibilityMiles, Max Wind SpeedMPH, Mean Wind SpeedMPH, Max Gust SpeedMPH,PrecipitationIn, CloudCover, Events, WindDirDegrees
2012-10-1,68,58,47,52,46,44,93,71,48,29.96,29.90,29.84,10,10,7,13,5,17,0.00,4,,211
2012-10-2,63,60,56,60,55,49,93,83,72,30.02,29.98,29.94,10,7,1,8,2,12,0.68,8,Rain,64
2012-10-3,74,68,62,66,64,60,93,83,73,30.14,30.05,29.97,10,8,2,10,3,14,0.02,7,Rain,240
2012-10-4,70,63,56,66,63,55,97,89,81,30.16,30.12,30.07,10,3,0,10,1,13,0.22,6,Fog-Rain,248
2012-10-5,76,64,51,59,54,48,96,73,50,30.10,30.04,29.91,10,7,2,14,4,17,0.00,0,,217
2012-10-6,66,54,41,56,50,41,96,80,63,30.04,29.88,29.78,10,8,2,16,4,21,0.05,5,Rain,294
2012-10-7,52,47,41,43,41,39,93,78,63,30.12,30.07,30.00,10,10,8,15,2,21,0.05,6,Rain,242
2012-10-8,53,46,38,41,38,34,92,71,50,30.29,30.23,30.13,10,9,7,7,1,70,0.00,5,,251
2012-10-9,56,51,46,50,45,40,86,74,61,30.23,30.15,30.06,10,9,3,7,2,9,T,8,Rain,42
2012-10-10,61,53,45,54,47,36,96,75,53,30.04,29.92,29.82,10,9,2,18,7,24,0.04,7,Rain,252
2012-10-11,56,48,39,38,32,28,79,57,35,30.22,30.13,30.01,10,10,10,15,7,22,T,1,,239
2012-10-12,54,42,30,38,31,23,85,62,39,30.45,30.23,30.07,10,10,10,24,9,33,T,3,,310
2012-10-13,55,41,27,29,25,19,92,60,28,30.52,30.41,30.23,10,10,10,10,5,16,0.00,1,,168
2012-10-14,70,59,47,50,44,30,68,58,47,30.19,30.04,29.86,10,10,10,16,7,29,0.00,4,,213
2012-10-15,67,59,50,59,53,42,97,79,60,29.86,29.71,29.65,10,9,2,15,6,20,0.07,5,Rain,226
2012-10-16,55,47,38,42,35,32,79,62,45,29.94,29.84,29.74,10,10,10,20,8,26,T,5,,323
2012-10-17,64,49,34,40,36,32,96,65,34,30.01,29.96,29.91,10,10,10,10,3,17,0.00,0,,156
2012-10-18,65,55,44,54,46,40,86,65,44,29.98,29.93,29.86,10,9,4,18,7,33,0.16,4,Rain,155
2012-10-19,72,63,54,61,57,53,100,83,66,29.87,29.75,29.62,10,7,1,14,3,23,1.83,7,Rain-Thunderstorm,43
2012-10-20,58,51,44,53,45,36,100,74,47,29.85,29.73,29.64,10,8,0,16,6,21,0.00,4,Fog,230
2012-10-21,63,53,42,43,39,36,89,64,39,30.06,29.98,29.87,10,10,10,15,6,20,0.00,2,,244
2012-10-22,66,53,39,42,40,37,92,66,40,30.15,30.10,30.06,10,10,9,15,5,21,0.00,0,,232
2012-10-23,59,51,43,55,49,39,93,82,71,30.15,30.09,30.04,10,6,0,8,2,10,0.29,7,Fog-Rain,51
2012-10-24,73,64,55,59,56,54,100,81,61,30.16,30.09,30.04,10,4,0,10,2,14,T,8,Fog-Rain,57
2012-10-25,65,60,54,55,53,52,93,80,67,30.23,30.20,30.15,10,9,6,8,3,14,0.00,7,,162
2012-10-26,62,60,58,54,53,52,86,79,72,30.21,30.16,30.09,10,8,6,8,3,13,0.00,8,,186
2012-10-27,63,60,56,54,53,51,86,77,67,30.10,30.00,29.93,10,8,6,9,1,14,0.00,7,,68
2012-10-28,57,55,52,52,47,40,89,70,51,29.93,29.85,29.71,10,9,7,18,8,24,0.03,7,Rain,40
2012-10-29,59,55,50,54,48,43,96,81,66,29.71,29.10,28.69,10,5,1,29,16,44,1.69,8,Rain,38
2012-10-30,52,46,40,46,40,36,89,82,74,29.44,29.21,28.77,10,8,4,25,7,43,0.59,8,Rain,130
2012-10-31,43,42,40,37,36,34,86,78,70,29.55,29.49,29.43,10,10,6,14,6,18,0.01,8,Rain,214